createdAt,value
2023-04-26T00:00:32.577Z,1001.9
2023-04-26T00:01:48.870Z,1001.9
2023-04-26T00:03:05.151Z,1001.9
2023-04-26T00:04:21.442Z,1002
2023-04-26T00:05:37.739Z,1002
2023-04-26T00:06:54.033Z,1002
2023-04-26T00:08:09.351Z,1002
2023-04-26T00:09:25.641Z,1001.9
2023-04-26T00:10:41.947Z,1002
2023-04-26T00:11:58.239Z,1002
2023-04-26T00:13:14.535Z,1002
2023-04-26T00:14:30.829Z,1002
2023-04-26T00:15:47.126Z,1001.9
2023-04-26T00:17:03.409Z,1001.9
2023-04-26T00:18:19.720Z,1001.9
2023-04-26T00:19:36.004Z,1002
2023-04-26T00:20:52.306Z,1002
2023-04-26T00:22:08.583Z,1002
2023-04-26T00:23:24.881Z,1002
2023-04-26T00:24:40.206Z,1002
2023-04-26T00:25:56.494Z,1002
2023-04-26T00:27:12.779Z,1002.1
2023-04-26T00:28:29.067Z,1002
2023-04-26T00:29:45.366Z,1002
2023-04-26T00:31:01.683Z,1002
2023-04-26T00:32:16.974Z,1002
2023-04-26T00:33:33.285Z,1002
2023-04-26T00:34:49.561Z,1002
2023-04-26T00:36:05.863Z,1002
2023-04-26T00:37:22.160Z,1001.9
2023-04-26T00:38:38.472Z,1002
2023-04-26T00:39:54.742Z,1002
2023-04-26T00:41:11.035Z,1002
2023-04-26T00:42:27.326Z,1002
2023-04-26T00:43:43.624Z,1002
2023-04-26T00:44:59.911Z,1002
2023-04-26T00:46:16.243Z,1002
2023-04-26T00:47:32.519Z,1002
2023-04-26T00:48:47.815Z,1002
2023-04-26T00:50:04.110Z,1002.1
2023-04-26T00:51:20.400Z,1002
2023-04-26T00:52:36.697Z,1002.1
2023-04-26T00:53:52.990Z,1002.1
2023-04-26T00:55:09.310Z,1002
2023-04-26T00:56:25.587Z,1002.1
2023-04-26T00:57:41.881Z,1002.1
2023-04-26T00:58:58.194Z,1002.1
2023-04-26T01:01:30.764Z,1002.1
2023-04-26T01:02:47.067Z,1002.1
2023-04-26T01:04:03.370Z,1002.1
2023-04-26T01:05:18.667Z,1002.2
2023-04-26T01:06:34.962Z,1002.2
2023-04-26T01:07:51.255Z,1002.2
2023-04-26T01:09:07.567Z,1002.2
2023-04-26T01:10:23.862Z,1002.3
2023-04-26T01:11:40.143Z,1002.3
2023-04-26T01:12:56.427Z,1002.3
2023-04-26T01:14:12.733Z,1002.3
2023-04-26T01:15:29.015Z,1002.2
2023-04-26T01:16:45.307Z,1002.3
2023-04-26T01:18:01.620Z,1002.2
2023-04-26T01:19:17.909Z,1002.3
2023-04-26T01:20:34.199Z,1002.3
2023-04-26T01:21:49.521Z,1002.3
2023-04-26T01:23:05.803Z,1002.3
2023-04-26T01:24:22.085Z,1002.3
2023-04-26T01:25:38.396Z,1002.3
2023-04-26T01:26:54.702Z,1002.3
2023-04-26T01:28:10.972Z,1002.3
2023-04-26T01:29:27.272Z,1002.3
2023-04-26T01:30:43.556Z,1002.3
2023-04-26T01:31:59.853Z,1002.3
2023-04-26T01:33:16.151Z,1002.3
2023-04-26T01:34:32.452Z,1002.3
2023-04-26T01:35:48.745Z,1002.3
2023-04-26T01:37:05.043Z,1002.3
2023-04-26T01:38:20.341Z,1002.3
2023-04-26T01:39:36.630Z,1002.3
2023-04-26T01:40:52.944Z,1002.3
2023-04-26T01:42:09.224Z,1002.3
2023-04-26T01:43:25.532Z,1002.3
2023-04-26T01:44:41.820Z,1002.3
2023-04-26T01:45:58.108Z,1002.3
2023-04-26T01:47:14.422Z,1002.3
2023-04-26T01:48:30.706Z,1002.3
2023-04-26T01:49:46.987Z,1002.3
2023-04-26T01:51:03.305Z,1002.3
2023-04-26T01:52:19.580Z,1002.3
2023-04-26T01:53:35.000Z,1002.4
2023-04-26T01:54:51.178Z,1002.3
2023-04-26T01:56:07.492Z,1002.4
2023-04-26T01:57:23.768Z,1002.4
2023-04-26T01:58:40.065Z,1002.3
2023-04-26T01:59:56.372Z,1002.4
2023-04-26T02:01:12.650Z,1002.4
2023-04-26T02:02:28.965Z,1002.4
2023-04-26T02:03:45.270Z,1002.4
2023-04-26T02:05:01.553Z,1002.4
2023-04-26T02:06:17.847Z,1002.3
2023-04-26T02:07:34.154Z,1002.4
2023-04-26T02:08:50.429Z,1002.3
2023-04-26T02:10:06.719Z,1002.3
2023-04-26T02:11:22.025Z,1002.4
2023-04-26T02:12:38.330Z,1002.3
2023-04-26T02:13:54.614Z,1002.4
2023-04-26T02:15:10.912Z,1002.4
2023-04-26T02:16:27.217Z,1002.4
2023-04-26T02:17:43.508Z,1002.4
2023-04-26T02:18:59.802Z,1002.5
2023-04-26T02:20:16.089Z,1002.4
2023-04-26T02:21:32.375Z,1002.4
2023-04-26T02:24:04.976Z,1002.4
2023-04-26T02:25:21.268Z,1002.4
2023-04-26T02:26:37.553Z,1002.4
2023-04-26T02:27:52.870Z,1002.5
2023-04-26T02:29:09.170Z,1002.4
2023-04-26T02:30:25.467Z,1002.4
2023-04-26T02:31:41.745Z,1002.4
2023-04-26T02:32:58.042Z,1002.4
2023-04-26T02:34:14.355Z,1002.4
2023-04-26T02:35:30.633Z,1002.4
2023-04-26T02:36:46.928Z,1002.4
2023-04-26T02:38:03.233Z,1002.3
2023-04-26T02:39:19.000Z,1002.4
2023-04-26T02:40:35.807Z,1002.4
2023-04-26T02:41:52.109Z,1002.3
2023-04-26T02:43:08.395Z,1002.4
2023-04-26T02:44:23.718Z,1002.3
2023-04-26T02:45:40.003Z,1002.3
2023-04-26T02:46:56.313Z,1002.4
2023-04-26T02:48:12.594Z,1002.3
2023-04-26T02:49:28.887Z,1002.3
2023-04-26T02:50:45.186Z,1002.4
2023-04-26T02:52:01.484Z,1002.3
2023-04-26T02:53:17.767Z,1002.4
2023-04-26T02:54:34.068Z,1002.4
2023-04-26T02:55:50.370Z,1002.4
2023-04-26T02:57:06.648Z,1002.5
2023-04-26T02:58:22.955Z,1002.4
2023-04-26T02:59:39.244Z,1002.4
2023-04-26T03:00:54.560Z,1002.4
2023-04-26T03:02:10.850Z,1002.4
2023-04-26T03:03:27.152Z,1002.4
2023-04-26T03:04:43.442Z,1002.5
2023-04-26T03:05:59.748Z,1002.4
2023-04-26T03:07:16.030Z,1002.4
2023-04-26T03:08:32.331Z,1002.4
2023-04-26T03:11:04.903Z,1002.4
2023-04-26T03:12:21.210Z,1002.4
2023-04-26T03:13:37.490Z,1002.4
2023-04-26T03:14:53.802Z,1002.4
2023-04-26T03:16:10.101Z,1002.4
2023-04-26T03:17:25.398Z,1002.3
2023-04-26T03:18:41.644Z,1002.4
2023-04-26T03:19:57.941Z,1002.4
2023-04-26T03:21:14.179Z,1002.4
2023-04-26T03:22:30.422Z,1002.4
2023-04-26T03:23:46.666Z,1002.4
2023-04-26T03:25:02.906Z,1002.4
2023-04-26T03:26:19.157Z,1002.5
2023-04-26T03:27:35.390Z,1002.4
2023-04-26T03:28:51.628Z,1002.5
2023-04-26T03:30:07.882Z,1002.4
2023-04-26T03:31:24.125Z,1002.4
2023-04-26T03:32:40.360Z,1002.4
2023-04-26T03:33:55.622Z,1002.4
2023-04-26T03:35:11.853Z,1002.5
2023-04-26T03:36:28.105Z,1002.4
2023-04-26T03:37:44.335Z,1002.5
2023-04-26T03:39:00.583Z,1002.5
2023-04-26T03:40:16.811Z,1002.5
2023-04-26T03:41:33.068Z,1002.5
2023-04-26T03:42:49.302Z,1002.5
2023-04-26T03:44:05.531Z,1002.5
2023-04-26T03:45:21.770Z,1002.5
2023-04-26T03:46:38.023Z,1002.5
2023-04-26T03:47:54.249Z,1002.5
2023-04-26T03:49:10.497Z,1002.5
2023-04-26T03:50:25.751Z,1002.5
2023-04-26T03:51:42.002Z,1002.5
2023-04-26T03:52:58.235Z,1002.5
2023-04-26T03:54:14.481Z,1002.6
2023-04-26T03:55:30.709Z,1002.6
2023-04-26T03:56:46.953Z,1002.6
2023-04-26T03:58:03.197Z,1002.5
2023-04-26T03:59:19.437Z,1002.5
2023-04-26T04:00:35.000Z,1002.5
2023-04-26T04:01:51.917Z,1002.5
2023-04-26T04:03:08.152Z,1002.5
2023-04-26T04:04:24.397Z,1002.5
2023-04-26T04:05:40.646Z,1002.5
2023-04-26T04:06:55.888Z,1002.5
2023-04-26T04:08:12.136Z,1002.5
2023-04-26T04:09:28.383Z,1002.5
2023-04-26T04:10:44.614Z,1002.5
2023-04-26T04:12:00.000Z,1002.5
2023-04-26T04:13:17.094Z,1002.6
2023-04-26T04:14:33.346Z,1002.6
2023-04-26T04:15:49.589Z,1002.6
2023-04-26T04:17:05.815Z,1002.6
2023-04-26T04:18:22.058Z,1002.6
2023-04-26T04:19:38.300Z,1002.6
2023-04-26T04:20:54.549Z,1002.6
2023-04-26T04:22:10.783Z,1002.6
2023-04-26T04:23:26.042Z,1002.6
2023-04-26T04:24:42.278Z,1002.7
2023-04-26T04:25:58.527Z,1002.7
2023-04-26T04:27:14.753Z,1002.7
2023-04-26T04:28:31.013Z,1002.7
2023-04-26T04:29:47.236Z,1002.7
2023-04-26T04:31:03.479Z,1002.7
2023-04-26T04:32:19.725Z,1002.7
2023-04-26T04:33:35.962Z,1002.8
2023-04-26T04:34:52.211Z,1002.7
2023-04-26T04:36:08.444Z,1002.7
2023-04-26T04:37:24.684Z,1002.7
2023-04-26T04:38:40.924Z,1002.8
2023-04-26T04:39:56.171Z,1002.8
2023-04-26T04:41:12.408Z,1002.8
2023-04-26T04:42:28.668Z,1002.8
2023-04-26T04:43:44.891Z,1002.9
2023-04-26T04:45:01.131Z,1002.9
2023-04-26T04:46:17.380Z,1002.9
2023-04-26T04:47:32.636Z,1002.9
2023-04-26T04:48:48.889Z,1002.9
2023-04-26T04:50:05.131Z,1002.9
2023-04-26T04:51:21.355Z,1003
2023-04-26T04:52:37.597Z,1002.9
2023-04-26T04:53:53.849Z,1003
2023-04-26T04:55:10.089Z,1003
2023-04-26T04:56:26.315Z,1002.9
2023-04-26T04:57:42.567Z,1003
2023-04-26T04:58:58.799Z,1003
2023-04-26T05:00:15.049Z,1003
2023-04-26T05:01:31.286Z,1003
2023-04-26T05:02:47.527Z,1003.1
2023-04-26T05:04:02.783Z,1003.1
2023-04-26T05:05:19.022Z,1003.1
2023-04-26T05:06:35.270Z,1003
2023-04-26T05:07:51.508Z,1003.1
2023-04-26T05:09:07.000Z,1003.1
2023-04-26T05:10:23.978Z,1003
2023-04-26T05:11:40.224Z,1003.1
2023-04-26T05:12:56.455Z,1003.1
2023-04-26T05:14:12.705Z,1003.1
2023-04-26T05:15:28.940Z,1003.1
2023-04-26T05:16:45.186Z,1003.1
2023-04-26T05:18:01.422Z,1003.1
2023-04-26T05:19:17.673Z,1003.1
2023-04-26T05:20:32.915Z,1003.1
2023-04-26T05:21:49.164Z,1003
2023-04-26T05:23:05.000Z,1003.1
2023-04-26T05:24:21.634Z,1003.1
2023-04-26T05:25:37.000Z,1003.1
2023-04-26T05:26:54.120Z,1003.1
2023-04-26T05:28:10.362Z,1003.1
2023-04-26T05:29:26.600Z,1003.1
2023-04-26T05:30:42.839Z,1003.1
2023-04-26T05:31:59.075Z,1003.1
2023-04-26T05:33:15.319Z,1003.1
2023-04-26T05:34:31.561Z,1003.1
2023-04-26T05:35:47.797Z,1003.2
2023-04-26T05:37:03.066Z,1003.2
2023-04-26T05:38:19.308Z,1003.2
2023-04-26T05:39:35.543Z,1003.2
2023-04-26T05:40:51.788Z,1003.2
2023-04-26T05:42:08.024Z,1003.2
2023-04-26T05:43:24.257Z,1003.2
2023-04-26T05:44:40.505Z,1003.2
2023-04-26T05:45:56.751Z,1003.2
2023-04-26T05:47:12.978Z,1003.2
2023-04-26T05:48:29.230Z,1003.2
2023-04-26T05:49:45.456Z,1003.2
2023-04-26T05:51:01.716Z,1003.3
2023-04-26T05:52:17.953Z,1003.2
2023-04-26T05:53:33.203Z,1003.3
2023-04-26T05:54:49.445Z,1003.3
2023-04-26T05:56:05.689Z,1003.3
2023-04-26T05:57:21.931Z,1003.3
2023-04-26T05:58:38.168Z,1003.3
2023-04-26T05:59:54.414Z,1003.3
2023-04-26T06:01:10.643Z,1003.3
2023-04-26T06:02:26.883Z,1003.3
2023-04-26T06:03:43.121Z,1003.3
2023-04-26T06:04:59.366Z,1003.3
2023-04-26T06:06:15.602Z,1003.3
2023-04-26T06:07:31.839Z,1003.3
2023-04-26T06:08:48.091Z,1003.5
2023-04-26T06:10:03.353Z,1003.3
2023-04-26T06:11:19.578Z,1003.3
2023-04-26T06:12:35.816Z,1003.3
2023-04-26T06:13:52.072Z,1003.3
2023-04-26T06:15:08.314Z,1003.3
2023-04-26T06:16:24.547Z,1003.3
2023-04-26T06:17:40.781Z,1003.3
2023-04-26T06:18:57.042Z,1003.3
2023-04-26T06:20:13.274Z,1003.3
2023-04-26T06:21:29.500Z,1003.3
2023-04-26T06:22:45.741Z,1003.3
2023-04-26T06:24:01.975Z,1003.4
2023-04-26T06:25:18.225Z,1003.4
2023-04-26T06:26:33.485Z,1003.4
2023-04-26T06:27:49.727Z,1003.3
2023-04-26T06:29:05.975Z,1003.4
2023-04-26T06:30:22.211Z,1003.4
2023-04-26T06:31:38.444Z,1003.4
2023-04-26T06:32:54.684Z,1003.4
2023-04-26T06:34:10.932Z,1003.4
2023-04-26T06:35:27.170Z,1003.5
2023-04-26T06:36:43.402Z,1003.4
2023-04-26T06:37:59.640Z,1003.4
2023-04-26T06:39:15.888Z,1003.4
2023-04-26T06:40:32.137Z,1003.5
2023-04-26T06:41:48.380Z,1003.4
2023-04-26T06:43:03.619Z,1003.4
2023-04-26T06:44:19.868Z,1003.4
2023-04-26T06:45:36.100Z,1003.4
2023-04-26T06:46:52.338Z,1003.4
2023-04-26T06:48:08.584Z,1003.4
2023-04-26T06:49:24.818Z,1003.5
2023-04-26T06:50:41.063Z,1003.4
2023-04-26T06:51:57.304Z,1003.4
2023-04-26T06:53:13.535Z,1003.4
2023-04-26T06:54:29.787Z,1003.5
2023-04-26T06:57:02.253Z,1003.5
2023-04-26T06:58:18.495Z,1003.5
2023-04-26T06:59:33.763Z,1003.4
2023-04-26T07:00:50.002Z,1003.4
2023-04-26T07:02:06.236Z,1003.5
2023-04-26T07:03:22.475Z,1003.4
2023-04-26T07:04:38.716Z,1003.4
2023-04-26T07:05:54.948Z,1003.4
2023-04-26T07:07:11.188Z,1003.4
2023-04-26T07:08:27.437Z,1003.4
2023-04-26T07:09:43.686Z,1003.5
2023-04-26T07:10:59.924Z,1003.4
2023-04-26T07:12:16.149Z,1003.4
2023-04-26T07:13:32.408Z,1003.5
2023-04-26T07:14:48.643Z,1003.4
2023-04-26T07:16:03.892Z,1003.4
2023-04-26T07:17:20.128Z,1003.5
2023-04-26T07:18:36.368Z,1003.5
2023-04-26T07:19:52.627Z,1003.5
2023-04-26T07:21:08.847Z,1003.5
2023-04-26T07:22:25.086Z,1003.5
2023-04-26T07:23:41.338Z,1003.5
2023-04-26T07:24:57.582Z,1003.5
2023-04-26T07:26:13.815Z,1003.5
2023-04-26T07:27:30.046Z,1003.5
2023-04-26T07:28:46.284Z,1003.5
2023-04-26T07:30:02.529Z,1003.5
2023-04-26T07:31:18.771Z,1003.4
2023-04-26T07:32:34.035Z,1003.5
2023-04-26T07:33:50.270Z,1003.4
2023-04-26T07:35:06.510Z,1003.4
2023-04-26T07:36:22.752Z,1003.4
2023-04-26T07:37:38.985Z,1003.4
2023-04-26T07:38:55.219Z,1003.4
2023-04-26T07:40:11.470Z,1003.4
2023-04-26T07:41:27.718Z,1003.3
2023-04-26T07:42:43.947Z,1003.3
2023-04-26T07:44:00.190Z,1003.3
2023-04-26T07:45:16.431Z,1003.4
2023-04-26T07:46:32.677Z,1003.4
2023-04-26T07:47:48.928Z,1003.4
2023-04-26T07:49:04.172Z,1003.4
2023-04-26T07:50:20.411Z,1003.4
2023-04-26T07:51:36.641Z,1003.4
2023-04-26T07:52:52.887Z,1003.4
2023-04-26T07:54:09.127Z,1003.4
2023-04-26T07:55:25.367Z,1003.3
2023-04-26T07:56:41.597Z,1003.4
2023-04-26T07:57:57.000Z,1003.4
2023-04-26T07:59:14.083Z,1003.4
2023-04-26T08:00:30.314Z,1003.4
2023-04-26T08:01:46.560Z,1003.4
2023-04-26T08:03:02.805Z,1003.4
2023-04-26T08:04:19.049Z,1003.5
2023-04-26T08:05:34.288Z,1003.5
2023-04-26T08:06:50.548Z,1003.5
2023-04-26T08:08:06.775Z,1003.5
2023-04-26T08:09:23.023Z,1003.5
2023-04-26T08:10:39.258Z,1003.5
2023-04-26T08:11:55.504Z,1003.5
2023-04-26T08:13:11.749Z,1003.5
2023-04-26T08:14:27.984Z,1003.6
2023-04-26T08:15:44.225Z,1003.5
2023-04-26T08:17:00.458Z,1003.5
2023-04-26T08:18:16.696Z,1003.5
2023-04-26T08:19:32.932Z,1003.6
2023-04-26T08:20:49.179Z,1003.5
2023-04-26T08:22:04.438Z,1003.6
2023-04-26T08:23:20.665Z,1003.5
2023-04-26T08:24:36.910Z,1003.5
2023-04-26T08:25:53.173Z,1003.6
2023-04-26T08:27:09.402Z,1003.5
2023-04-26T08:28:25.633Z,1003.6
2023-04-26T08:29:41.878Z,1003.6
2023-04-26T08:30:58.101Z,1003.6
2023-04-26T08:32:14.350Z,1003.6
2023-04-26T08:33:30.593Z,1003.6
2023-04-26T08:34:46.837Z,1003.6
2023-04-26T08:36:03.073Z,1003.6
2023-04-26T08:37:19.307Z,1003.6
2023-04-26T08:38:34.573Z,1003.5
2023-04-26T08:39:50.825Z,1003.6
2023-04-26T08:41:07.060Z,1003.5
2023-04-26T08:42:23.293Z,1003.5
2023-04-26T08:43:39.532Z,1003.5
2023-04-26T08:44:55.770Z,1003.5
2023-04-26T08:46:12.013Z,1003.5
2023-04-26T08:47:28.259Z,1003.6
2023-04-26T08:48:44.493Z,1003.6
2023-04-26T08:50:00.735Z,1003.6
2023-04-26T08:51:16.960Z,1003.6
2023-04-26T08:52:33.199Z,1003.6
2023-04-26T08:53:49.452Z,1003.6
2023-04-26T08:55:04.704Z,1003.6
2023-04-26T08:56:20.941Z,1003.6
2023-04-26T08:57:37.187Z,1003.7
2023-04-26T08:58:53.427Z,1003.7
2023-04-26T09:00:09.657Z,1003.6
2023-04-26T09:01:25.895Z,1003.6
2023-04-26T09:02:41.165Z,1003.6
2023-04-26T09:03:57.411Z,1003.7
2023-04-26T09:05:13.642Z,1003.6
2023-04-26T09:06:29.895Z,1003.6
2023-04-26T09:07:46.117Z,1003.6
2023-04-26T09:09:02.356Z,1003.6
2023-04-26T09:10:18.604Z,1003.5
2023-04-26T09:11:34.838Z,1003.5
2023-04-26T09:12:51.091Z,1003.5
2023-04-26T09:14:07.331Z,1003.5
2023-04-26T09:15:23.566Z,1003.5
2023-04-26T09:16:39.801Z,1003.5
2023-04-26T09:17:56.033Z,1003.6
2023-04-26T09:19:12.408Z,1003.5
2023-04-26T09:20:28.633Z,1003.6
2023-04-26T09:21:44.873Z,1003.6
2023-04-26T09:23:01.129Z,1003.5
2023-04-26T09:24:17.376Z,1003.7
2023-04-26T09:25:33.600Z,1003.6
2023-04-26T09:26:49.848Z,1003.6
2023-04-26T09:28:06.089Z,1003.6
2023-04-26T09:29:22.318Z,1003.7
2023-04-26T09:30:38.564Z,1003.6
2023-04-26T09:31:54.794Z,1003.6
2023-04-26T09:33:11.036Z,1003.5
2023-04-26T09:34:27.288Z,1003.5
2023-04-26T09:35:42.527Z,1003.6
2023-04-26T09:36:58.780Z,1003.5
2023-04-26T09:38:15.015Z,1003.5
2023-04-26T09:39:31.265Z,1003.5
2023-04-26T09:40:47.496Z,1003.6
2023-04-26T09:42:03.747Z,1003.6
2023-04-26T09:43:19.981Z,1003.6
2023-04-26T09:44:36.220Z,1003.6
2023-04-26T09:45:52.453Z,1003.6
2023-04-26T09:47:08.697Z,1003.6
2023-04-26T09:48:24.925Z,1003.6
2023-04-26T09:49:41.186Z,1003.6
2023-04-26T09:50:57.424Z,1003.6
2023-04-26T09:52:12.675Z,1003.6
2023-04-26T09:53:28.912Z,1003.6
2023-04-26T09:54:45.146Z,1003.5
2023-04-26T09:56:01.397Z,1003.6
2023-04-26T09:57:17.631Z,1003.5
2023-04-26T09:58:33.871Z,1003.5
2023-04-26T09:59:50.113Z,1003.5
2023-04-26T10:01:06.358Z,1003.6
2023-04-26T10:02:22.582Z,1003.6
2023-04-26T10:03:38.825Z,1003.6
2023-04-26T10:04:55.083Z,1003.6
2023-04-26T10:06:11.311Z,1003.6
2023-04-26T10:07:27.548Z,1003.6
2023-04-26T10:08:42.811Z,1003.6
2023-04-26T10:09:59.059Z,1003.6
2023-04-26T10:11:15.286Z,1003.6
2023-04-26T10:12:31.533Z,1003.6
2023-04-26T10:13:47.764Z,1003.6
2023-04-26T10:15:04.006Z,1003.5
2023-04-26T10:16:20.254Z,1003.5
2023-04-26T10:17:36.475Z,1003.6
2023-04-26T10:18:52.715Z,1003.6
2023-04-26T10:20:08.960Z,1003.6
2023-04-26T10:21:25.196Z,1003.6
2023-04-26T10:22:41.436Z,1003.5
2023-04-26T10:23:57.677Z,1003.6
2023-04-26T10:25:12.943Z,1003.6
2023-04-26T10:26:29.187Z,1003.5
2023-04-26T10:27:45.421Z,1003.6
2023-04-26T10:29:01.666Z,1003.5
2023-04-26T10:30:17.888Z,1003.6
2023-04-26T10:31:34.145Z,1003.5
2023-04-26T10:32:50.387Z,1003.5
2023-04-26T10:34:06.622Z,1003.5
2023-04-26T10:35:22.870Z,1003.5
2023-04-26T10:36:39.100Z,1003.4
2023-04-26T10:37:55.339Z,1003.5
2023-04-26T10:39:11.581Z,1003.4
2023-04-26T10:40:27.807Z,1003.5
2023-04-26T10:41:43.074Z,1003.6
2023-04-26T10:42:59.312Z,1003.5
2023-04-26T10:44:15.559Z,1003.6
2023-04-26T10:45:31.785Z,1003.6
2023-04-26T10:46:48.042Z,1003.6
2023-04-26T10:48:04.279Z,1003.6
2023-04-26T10:49:20.520Z,1003.6
2023-04-26T10:50:36.747Z,1003.5
2023-04-26T10:51:52.981Z,1003.6
2023-04-26T10:53:09.234Z,1003.6
2023-04-26T10:54:25.469Z,1003.6
2023-04-26T10:55:41.714Z,1003.6
2023-04-26T10:56:57.000Z,1003.6
2023-04-26T10:58:13.200Z,1003.5
2023-04-26T10:59:29.449Z,1003.6
2023-04-26T11:00:45.685Z,1003.6
2023-04-26T11:02:01.926Z,1003.5
2023-04-26T11:03:18.162Z,1003.5
2023-04-26T11:04:34.405Z,1003.6
2023-04-26T11:05:50.665Z,1003.5
2023-04-26T11:07:06.902Z,1003.5
2023-04-26T11:08:23.133Z,1003.5
2023-04-26T11:09:39.382Z,1003.4
2023-04-26T11:10:55.618Z,1003.5
2023-04-26T11:12:11.869Z,1003.5
2023-04-26T11:13:28.085Z,1003.5
2023-04-26T11:14:43.351Z,1003.4
2023-04-26T11:15:59.593Z,1003.4
2023-04-26T11:17:15.822Z,1003.4
2023-04-26T11:18:32.065Z,1003.4
2023-04-26T11:19:48.313Z,1003.5
2023-04-26T11:21:04.539Z,1003.5
2023-04-26T11:22:20.796Z,1003.5
2023-04-26T11:23:37.034Z,1003.5
2023-04-26T11:24:53.263Z,1003.5
2023-04-26T11:26:09.500Z,1003.4
2023-04-26T11:27:25.744Z,1003.5
2023-04-26T11:28:41.995Z,1003.5
2023-04-26T11:29:58.218Z,1003.5
2023-04-26T11:31:13.478Z,1003.5
2023-04-26T11:32:29.717Z,1003.5
2023-04-26T11:33:45.972Z,1003.4
2023-04-26T11:35:02.204Z,1003.4
2023-04-26T11:36:18.432Z,1003.5
2023-04-26T11:37:34.677Z,1003.4
2023-04-26T11:38:50.923Z,1003.4
2023-04-26T11:40:07.164Z,1003.4
2023-04-26T11:41:23.398Z,1003.4
2023-04-26T11:42:39.633Z,1003.4
2023-04-26T11:43:55.879Z,1003.4
2023-04-26T11:45:12.113Z,1003.4
2023-04-26T11:46:28.370Z,1003.4
2023-04-26T11:47:43.611Z,1003.4
2023-04-26T11:48:59.850Z,1003.4
2023-04-26T11:50:16.098Z,1003.4
2023-04-26T11:51:32.334Z,1003.4
2023-04-26T11:52:48.580Z,1003.5
2023-04-26T11:54:04.000Z,1003.5
2023-04-26T11:55:21.053Z,1003.5
2023-04-26T11:56:37.293Z,1003.5
2023-04-26T11:57:53.539Z,1003.5
2023-04-26T11:59:09.773Z,1003.5
2023-04-26T12:00:26.012Z,1003.5
2023-04-26T12:01:42.249Z,1003.5
2023-04-26T12:02:58.503Z,1003.5
2023-04-26T12:04:13.759Z,1003.5
2023-04-26T12:05:29.984Z,1003.5
2023-04-26T12:06:46.231Z,1003.5
2023-04-26T12:08:02.479Z,1003.6
2023-04-26T12:09:18.703Z,1003.5
2023-04-26T12:10:34.960Z,1003.5
2023-04-26T12:11:51.193Z,1003.5
2023-04-26T12:13:07.431Z,1003.5
2023-04-26T12:14:23.673Z,1003.5
2023-04-26T12:15:39.904Z,1003.5
2023-04-26T12:16:56.139Z,1003.5
2023-04-26T12:18:12.398Z,1003.5
2023-04-26T12:19:28.000Z,1003.5
2023-04-26T12:20:43.882Z,1003.4
2023-04-26T12:22:00.129Z,1003.5
2023-04-26T12:23:16.361Z,1003.5
2023-04-26T12:24:32.606Z,1003.5
2023-04-26T12:25:48.850Z,1003.5
2023-04-26T12:27:05.076Z,1003.5
2023-04-26T12:28:21.317Z,1003.5
2023-04-26T12:29:37.563Z,1003.4
2023-04-26T12:30:53.812Z,1003.4
2023-04-26T12:32:10.037Z,1003.5
2023-04-26T12:33:26.284Z,1003.4
2023-04-26T12:34:42.523Z,1003.4
2023-04-26T12:35:58.763Z,1003.4
2023-04-26T12:37:14.019Z,1003.4
2023-04-26T12:38:30.258Z,1003.4
2023-04-26T12:39:46.509Z,1003.4
2023-04-26T12:41:02.745Z,1003.5
2023-04-26T12:42:18.971Z,1003.5
2023-04-26T12:43:35.230Z,1003.5
2023-04-26T12:44:51.465Z,1003.5
2023-04-26T12:46:07.703Z,1003.5
2023-04-26T12:47:23.937Z,1003.6
2023-04-26T12:48:40.186Z,1003.5
2023-04-26T12:49:56.414Z,1003.5
2023-04-26T12:51:12.656Z,1003.5
2023-04-26T12:52:28.888Z,1003.5
2023-04-26T12:53:44.159Z,1003.5
2023-04-26T12:55:00.396Z,1003.5
2023-04-26T12:56:16.629Z,1003.5
2023-04-26T12:57:32.879Z,1003.5
2023-04-26T12:58:49.111Z,1003.5
2023-04-26T13:00:05.345Z,1003.5
2023-04-26T13:01:21.596Z,1003.5
2023-04-26T13:02:37.834Z,1003.4
2023-04-26T13:03:54.067Z,1003.5
2023-04-26T13:05:10.314Z,1003.5
2023-04-26T13:06:26.558Z,1003.5
2023-04-26T13:07:42.801Z,1003.5
2023-04-26T13:08:59.030Z,1003.5
2023-04-26T13:10:14.279Z,1003.5
2023-04-26T13:11:30.534Z,1003.5
2023-04-26T13:12:46.761Z,1003.5
2023-04-26T13:14:03.013Z,1003.5
2023-04-26T13:15:19.252Z,1003.6
2023-04-26T13:16:35.486Z,1003.5
2023-04-26T13:17:50.750Z,1003.5
2023-04-26T13:19:06.990Z,1003.5
2023-04-26T13:20:23.224Z,1003.5
2023-04-26T13:21:39.468Z,1003.5
2023-04-26T13:22:55.707Z,1003.5
2023-04-26T13:24:11.952Z,1003.5
2023-04-26T13:25:28.180Z,1003.5
2023-04-26T13:26:44.417Z,1003.5
2023-04-26T13:28:00.673Z,1003.6
2023-04-26T13:29:16.909Z,1003.6
2023-04-26T13:30:33.140Z,1003.6
2023-04-26T13:31:49.377Z,1003.6
2023-04-26T13:33:05.617Z,1003.5
2023-04-26T13:34:20.890Z,1003.5
2023-04-26T13:35:37.121Z,1003.5
2023-04-26T13:36:53.354Z,1003.5
2023-04-26T13:38:09.595Z,1003.5
2023-04-26T13:39:25.850Z,1003.5
2023-04-26T13:40:42.090Z,1003.6
2023-04-26T13:41:58.328Z,1003.6
2023-04-26T13:43:14.568Z,1003.6
2023-04-26T13:44:30.796Z,1003.6
2023-04-26T13:45:47.043Z,1003.6
2023-04-26T13:47:03.275Z,1003.5
2023-04-26T13:48:19.522Z,1003.6
2023-04-26T13:49:35.764Z,1003.6
2023-04-26T13:50:51.006Z,1003.6
2023-04-26T13:52:07.253Z,1003.6
2023-04-26T13:53:23.500Z,1003.5
2023-04-26T13:54:39.732Z,1003.5
2023-04-26T13:55:55.975Z,1003.6
2023-04-26T13:57:12.213Z,1003.5
2023-04-26T13:58:28.467Z,1003.5
2023-04-26T13:59:44.684Z,1003.5
2023-04-26T14:01:00.943Z,1003.6
2023-04-26T14:02:17.176Z,1003.6
2023-04-26T14:03:33.421Z,1003.6
2023-04-26T14:04:49.654Z,1003.7
2023-04-26T14:06:05.894Z,1003.7
2023-04-26T14:07:21.148Z,1003.7
2023-04-26T14:08:37.399Z,1003.7
2023-04-26T14:09:53.635Z,1003.7
2023-04-26T14:11:09.868Z,1003.7
2023-04-26T14:12:26.116Z,1003.7
2023-04-26T14:13:42.347Z,1003.7
2023-04-26T14:14:58.594Z,1003.7
2023-04-26T14:16:14.835Z,1003.7
2023-04-26T14:17:31.065Z,1003.7
2023-04-26T14:18:47.300Z,1003.7
2023-04-26T14:20:03.542Z,1003.7
2023-04-26T14:21:19.790Z,1003.7
2023-04-26T14:22:36.037Z,1003.6
2023-04-26T14:23:51.284Z,1003.7
2023-04-26T14:25:07.522Z,1003.7
2023-04-26T14:26:23.758Z,1003.7
2023-04-26T14:27:39.998Z,1003.7
2023-04-26T14:28:56.243Z,1003.7
2023-04-26T14:30:12.487Z,1003.7
2023-04-26T14:31:28.736Z,1003.7
2023-04-26T14:32:44.960Z,1003.8
2023-04-26T14:34:01.206Z,1003.7
2023-04-26T14:35:17.441Z,1003.7
2023-04-26T14:36:33.675Z,1003.6
2023-04-26T14:37:49.916Z,1003.6
2023-04-26T14:39:06.168Z,1003.7
2023-04-26T14:40:21.411Z,1003.7
2023-04-26T14:41:37.652Z,1003.7
2023-04-26T14:42:53.894Z,1003.6
2023-04-26T14:44:10.142Z,1003.7
2023-04-26T14:45:26.380Z,1003.6
2023-04-26T14:46:42.624Z,1003.7
2023-04-26T14:47:58.860Z,1003.7
2023-04-26T14:49:15.100Z,1003.7
2023-04-26T14:50:31.337Z,1003.7
2023-04-26T14:51:47.589Z,1003.8
2023-04-26T14:53:03.828Z,1003.7
2023-04-26T14:54:20.070Z,1003.9
2023-04-26T14:55:36.304Z,1003.8
2023-04-26T14:56:51.548Z,1003.8
2023-04-26T14:58:07.799Z,1003.8
2023-04-26T14:59:24.036Z,1003.8
2023-04-26T15:00:40.272Z,1003.8
2023-04-26T15:01:56.512Z,1003.8
2023-04-26T15:03:12.763Z,1003.8
2023-04-26T15:04:29.000Z,1003.8
2023-04-26T15:05:45.240Z,1003.7
2023-04-26T15:07:01.475Z,1003.8
2023-04-26T15:08:17.711Z,1003.8
2023-04-26T15:09:33.960Z,1003.8
2023-04-26T15:10:50.192Z,1003.8
2023-04-26T15:12:06.437Z,1003.8
2023-04-26T15:13:21.687Z,1003.8
2023-04-26T15:14:37.937Z,1003.8
2023-04-26T15:15:54.164Z,1003.8
2023-04-26T15:17:10.404Z,1003.8
2023-04-26T15:18:26.642Z,1003.8
2023-04-26T15:19:42.897Z,1003.8
2023-04-26T15:20:59.139Z,1003.8
2023-04-26T15:22:15.360Z,1003.8
2023-04-26T15:23:31.605Z,1003.7
2023-04-26T15:24:47.856Z,1003.7
2023-04-26T15:26:04.091Z,1003.8
2023-04-26T15:27:20.321Z,1003.8
2023-04-26T15:28:36.563Z,1003.8
2023-04-26T15:29:51.828Z,1003.8
2023-04-26T15:31:08.061Z,1003.8
2023-04-26T15:32:24.313Z,1003.8
2023-04-26T15:33:40.550Z,1003.8
2023-04-26T15:34:56.000Z,1003.9
2023-04-26T15:36:13.031Z,1003.9
2023-04-26T15:37:29.260Z,1003.9
2023-04-26T15:38:45.510Z,1003.9
2023-04-26T15:40:01.752Z,1003.8
2023-04-26T15:41:17.978Z,1003.8
2023-04-26T15:42:34.231Z,1003.8
2023-04-26T15:43:50.455Z,1003.8
2023-04-26T15:45:06.707Z,1003.8
2023-04-26T15:46:21.962Z,1003.8
2023-04-26T15:47:38.196Z,1003.8
2023-04-26T15:48:54.450Z,1003.8
2023-04-26T15:50:10.689Z,1003.8
2023-04-26T15:51:26.923Z,1003.9
2023-04-26T15:52:43.159Z,1003.8
2023-04-26T15:53:59.406Z,1003.8
2023-04-26T15:55:15.646Z,1003.8
2023-04-26T15:56:31.885Z,1003.9
2023-04-26T15:57:48.121Z,1003.9
2023-04-26T15:59:04.361Z,1004